Logrono, Spain
Current Conditions -  °F | °C
As of 10:00 AM on Friday 31 Oct 2014 (Local Time) from LELO Reporting Station
Moderate Fog Moderate Fog  
Wind Chill: 55°   Ceiling: 400
Heat Index: 55°   Visibility: 0.37mi
Dew Point: 55°   Wind: 3mph
Humidity: 100%   Direction: 100°E
Pressure: 30.27"   Gusts: NA
Location:  42.47°N, 2.45°W
Report Text: LELO 310900Z 10003KT 0600 R29/P2000 FG VV004 13/13 Q1025
Loading
Personal Weather Stations






























Interactive Weather Map
Tropical Storm Tracking
New forecast layout! Learn more

10-Day Weather Forecast

Advertisements
Track Severe Weather on mobile